AirNav   Everest Fuels
 
 1221 users online  

08CL Kistler Ranch Airport
Jamestown, California, USA

GOING TO JAMESTOWN?


FAA INFORMATION EFFECTIVE 28 MARCH 2019

Location

FAA Identifier: 08CL
Lat/Long: 37-51-34.7370N / 120-33-15.7190W
37-51.578950N / 120-33.261983W
37.8596492 / -120.5543664
(estimated)
Elevation: 1025 ft. / 312 m (estimated)
Variation: 16E (1985)
From city: 9 miles SW of JAMESTOWN, CA
Time zone: UTC -7 (UTC -8 during Standard Time)
Zip code: 95327

Airport Operations

Airport use: Private use. Permission required prior to landing
Activation date: 04/1964
Control tower: no
ARTCC: OAKLAND CENTER
FSS: RANCHO MURIETA FLIGHT SERVICE STATION
Attendance: UNATNDD
Wind indicator: yes
Segmented circle: no

Airport Communications

WX AWOS-3 at O22 (12 nm NE): 124.65 (209-536-9384)
WX AWOS-3P at CPU (18 nm N): 118.525 (209-736-2523)

Nearby radio navigation aids

VOR radial/distance  VOR name  Freq  Var
MODr037/23.7MODESTO VOR/DME114.6017E
LINr104/24.9LINDEN VOR/DME114.8017E
HYPr334/39.1EL NIDO VOR/DME114.2015E

Airport Services

Airframe service: NONE
Powerplant service: NONE

Runway Information

Runway E/W

Dimensions: 2000 x 50 ft. / 610 x 15 m
Surface: dirt
RUNWAY E  RUNWAY W
Traffic pattern: rightright

Airport Ownership and Management from official FAA records

Ownership: Privately-owned
Owner: P. J. KISTLER, MD
429 TERRASOL LANE
OAKDALE, CA 95361
Phone (209) 322-3274
Manager: P. J. KISTLER, MD
429 TERRASOL LANE
OAKDALE, CA 95361
Phone (209) 322-3274

Additional Remarks

FOR CD CTC NORCAL APCH AT 916-361-0516.

Instrument Procedures

There are no published instrument procedures at 08CL.

Some nearby airports with instrument procedures:

O22 - Columbia Airport (12 nm NE)
O27 - Oakdale Airport (13 nm SW)
KCPU - Calaveras County Airport - Maury Rasmussen Field (18 nm N)
E45 - Pine Mountain Lake Airport (18 nm E)
KMOD - Modesto City-County Airport-Harry Sham Field (24 nm SW)
 
Loc | Ops | Rwys | IFR | FBO | Links
Com | Nav | Svcs | Stats | Notes
Area around 08CL (Kistler Ranch Airport)
 
Road maps at: MapQuest Bing Google
 
Aerial photo
No photo
 
Sectional chart

 
Airport distance calculator
Flying to Kistler Ranch Airport? Find the distance to fly.

From to 08CL

Sunrise and sunset
Times for 19-Apr-2019
 Local
(UTC-7)
 Zulu
(UTC)
Morning civil twilight05:5512:55
Sunrise06:2213:22
Sunset19:4002:40
Evening civil twilight20:0803:08

Current date and time
Zulu (UTC)  19-Apr-2019 13:39:58
Local (UTC-7)  19-Apr-2019 06:39:58
 
METAR
KO22 
12nm NE 
191315Z AUTO 00000KT 10SM CLR 12/05 A3001 RMK A01
KCPU 
18nm N 
191310Z AUTO 21006KT 10SM CLR 13/08 A2999 RMK AO2 T01300083
KMOD 
24nm SW 
191253Z AUTO 00000KT 10SM CLR 14/11 A2994 RMK AO2 SLP138 T01440111
TAF
KMOD 
24nm SW 
191135Z 1912/2012 00000KT P6SM SKC FM192000 33005KT P6SM SCT250
KMER 
29nm S 
191129Z 1912/2012 32006KT P6SM SCT250
NOTAMs
Click for the latest NOTAMs
NOTAMs are issued by the DoD/FAA and will open in a separate window not controlled by AirNav.

 

 
 

Would you like to see your business listed on this page?

 If your business provides an interesting product or service to pilots, flight crews, aircraft, or users of the Kistler Ranch Airport, you should consider listing it here.  To start the listing process, click on the button below
 
Add a business
 

Other Pages about Kistler Ranch Airport

Update a link
 
Copyright © AirNav, LLC. All rights reserved. Privacy Policy  Contact